createdAt,value
2023-11-09T00:01:40.293Z,62637.06
2023-11-09T00:04:08.085Z,62675.84
2023-11-09T00:06:35.446Z,62665.06
2023-11-09T00:09:03.069Z,62663.84
2023-11-09T00:11:30.665Z,62659.16
2023-11-09T00:13:58.001Z,62663.94
2023-11-09T00:16:25.493Z,62683.34
2023-11-09T00:18:54.092Z,62628.56
2023-11-09T00:21:21.439Z,62598.16
2023-11-09T00:23:48.861Z,62608.50
2023-11-09T00:26:16.254Z,62601.97
2023-11-09T00:28:52.199Z,62639.53
2023-11-09T00:31:21.167Z,62596.16
2023-11-09T00:33:48.679Z,62620.22
2023-11-09T00:36:16.101Z,62657.66
2023-11-09T00:38:47.428Z,62693.34
2023-11-09T00:41:16.092Z,62681.69
2023-11-09T00:43:43.501Z,62649.94
2023-11-09T00:46:11.313Z,62633.22
2023-11-09T00:48:39.237Z,62670.81
2023-11-09T00:51:06.657Z,62639.84
2023-11-09T00:53:34.464Z,62601.84
2023-11-09T00:56:01.908Z,62667.00
2023-11-09T00:58:29.318Z,62666.63
2023-11-09T01:00:58.674Z,62630.56
2023-11-09T01:03:26.148Z,62634.69
2023-11-09T01:05:54.470Z,62637.41
2023-11-09T01:08:25.319Z,62639.09
2023-11-09T01:10:52.624Z,62617.13
2023-11-09T01:13:19.945Z,62658.59
2023-11-09T01:15:47.351Z,62640.88
2023-11-09T01:18:15.767Z,62621.81
2023-11-09T01:20:43.153Z,62614.09
2023-11-09T01:23:13.106Z,62622.16
2023-11-09T01:25:40.558Z,62614.19
2023-11-09T01:28:08.899Z,62610.81
2023-11-09T01:30:36.448Z,62627.66
2023-11-09T01:33:05.858Z,62586.06
2023-11-09T01:35:33.384Z,62668.91
2023-11-09T01:38:00.808Z,62644.66
2023-11-09T01:40:28.310Z,62654.66
2023-11-09T01:42:55.743Z,62634.47
2023-11-09T01:45:23.426Z,62662.25
2023-11-09T01:47:51.638Z,62659.94
2023-11-09T01:50:19.089Z,62638.19
2023-11-09T01:52:46.519Z,62670.34
2023-11-09T01:55:14.549Z,62638.72
2023-11-09T01:57:42.871Z,62610.38
2023-11-09T02:00:12.448Z,62608.28
2023-11-09T02:02:42.705Z,62617.44
2023-11-09T02:05:10.809Z,62604.66
2023-11-09T02:07:38.610Z,62602.09
2023-11-09T02:10:08.051Z,62561.88
2023-11-09T02:12:36.084Z,62577.00
2023-11-09T02:15:03.997Z,62566.38
2023-11-09T02:17:33.640Z,62580.38
2023-11-09T02:20:01.963Z,62616.44
2023-11-09T02:22:47.334Z,62590.22
2023-11-09T02:25:14.749Z,62560.88
2023-11-09T02:27:42.062Z,62586.28
2023-11-09T02:30:09.760Z,62626.97
2023-11-09T02:32:37.094Z,62620.94
2023-11-09T02:35:05.298Z,62579.34
2023-11-09T02:37:32.787Z,62595.25
2023-11-09T02:40:01.215Z,62599.75
2023-11-09T02:42:28.575Z,62572.97
2023-11-09T02:44:55.989Z,62566.34
2023-11-09T02:47:23.491Z,62538.38
2023-11-09T02:49:50.886Z,62553.25
2023-11-09T02:52:18.452Z,62571.97
2023-11-09T02:54:45.736Z,62575.88
2023-11-09T02:57:13.336Z,62595.25
2023-11-09T02:59:41.287Z,62624.75
2023-11-09T03:02:09.500Z,62589.44
2023-11-09T03:04:36.903Z,62585.50
2023-11-09T03:07:08.665Z,62594.81
2023-11-09T03:09:36.921Z,62582.59
2023-11-09T03:12:07.704Z,62631.81
2023-11-09T03:14:35.354Z,62604.78
2023-11-09T03:17:07.866Z,62569.28
2023-11-09T03:19:36.552Z,62610.16
2023-11-09T03:22:13.959Z,62608.16
2023-11-09T03:24:41.779Z,62565.94
2023-11-09T03:27:11.306Z,62593.56
2023-11-09T03:29:39.233Z,62621.13
2023-11-09T03:32:08.642Z,62625.28
2023-11-09T03:34:36.136Z,62562.34
2023-11-09T03:37:03.504Z,62569.28
2023-11-09T03:39:33.916Z,62599.66
2023-11-09T03:42:01.404Z,62603.00
2023-11-09T03:44:34.357Z,62565.00
2023-11-09T03:47:01.917Z,62571.41
2023-11-09T03:49:29.387Z,62562.78
2023-11-09T03:51:56.841Z,62564.13
2023-11-09T03:54:24.273Z,62550.81
2023-11-09T03:56:51.571Z,62552.25
2023-11-09T03:59:19.181Z,62582.84
2023-11-09T04:01:46.664Z,62541.03
2023-11-09T04:04:16.113Z,62528.63
2023-11-09T04:06:43.550Z,62557.97
2023-11-09T04:09:10.887Z,62581.72
2023-11-09T04:11:40.142Z,62576.00
2023-11-09T04:14:09.221Z,62530.97
2023-11-09T04:16:36.882Z,62548.22
2023-11-09T04:19:04.338Z,62558.75
2023-11-09T04:21:31.756Z,62552.81
2023-11-09T04:23:59.252Z,62574.44
2023-11-09T04:26:26.611Z,62613.63
2023-11-09T04:28:54.525Z,62548.78
2023-11-09T04:31:22.177Z,62581.94
2023-11-09T04:33:49.723Z,62626.09
2023-11-09T04:36:18.584Z,62621.16
2023-11-09T04:38:47.978Z,62572.63
2023-11-09T04:41:17.568Z,62569.84
2023-11-09T04:43:46.153Z,62598.41
2023-11-09T04:46:18.726Z,62595.94
2023-11-09T04:48:48.728Z,62580.13
2023-11-09T04:51:24.288Z,62606.13
2023-11-09T04:53:58.294Z,62595.25
2023-11-09T04:56:43.990Z,62573.97
2023-11-09T04:59:29.455Z,62623.84
2023-11-09T05:02:22.049Z,62587.53
2023-11-09T05:05:08.285Z,62615.44
2023-11-09T05:07:36.584Z,62630.47
2023-11-09T05:10:04.892Z,62641.78
2023-11-09T05:12:32.567Z,62624.41
2023-11-09T05:15:02.065Z,62572.06
2023-11-09T05:17:30.964Z,62588.00
2023-11-09T05:19:58.852Z,62609.72
2023-11-09T05:22:28.040Z,62558.97
2023-11-09T05:24:55.848Z,62564.78
2023-11-09T05:27:24.369Z,62544.19
2023-11-09T05:29:53.872Z,62583.28
2023-11-09T05:32:29.282Z,62534.00
2023-11-09T05:34:56.594Z,62604.56
2023-11-09T05:37:24.093Z,62616.00
2023-11-09T05:39:51.488Z,62581.25
2023-11-09T05:42:19.672Z,62596.72
2023-11-09T05:44:47.221Z,62575.91
2023-11-09T05:47:14.597Z,62604.13
2023-11-09T05:49:41.993Z,62606.03
2023-11-09T05:52:10.893Z,62544.09
2023-11-09T05:54:38.319Z,62562.69
2023-11-09T05:57:06.035Z,62584.41
2023-11-09T05:59:34.785Z,62576.56
2023-11-09T06:02:03.178Z,62598.19
2023-11-09T06:04:30.838Z,62597.41
2023-11-09T06:06:58.606Z,62545.31
2023-11-09T06:09:26.813Z,62549.31
2023-11-09T06:11:55.624Z,62583.25
2023-11-09T06:14:23.344Z,62590.91
2023-11-09T06:16:51.035Z,62575.56
2023-11-09T06:19:19.063Z,62561.88
2023-11-09T06:21:46.692Z,62581.16
2023-11-09T06:24:16.217Z,62630.44
2023-11-09T06:26:43.600Z,62592.00
2023-11-09T06:29:15.509Z,62613.97
2023-11-09T06:31:43.560Z,62618.34
2023-11-09T06:34:16.635Z,62584.91
2023-11-09T06:36:44.817Z,62595.59
2023-11-09T06:39:17.820Z,62633.25
2023-11-09T06:41:46.655Z,62630.78
2023-11-09T06:44:14.378Z,62653.06
2023-11-09T06:46:41.812Z,62678.22
2023-11-09T06:49:10.261Z,62660.47
2023-11-09T06:51:37.808Z,62675.06
2023-11-09T06:54:06.792Z,62687.25
2023-11-09T06:56:35.837Z,62729.91
2023-11-09T06:59:04.725Z,62702.50
2023-11-09T07:01:32.650Z,62730.91
2023-11-09T07:04:00.173Z,62640.50
2023-11-09T07:06:29.130Z,62692.78
2023-11-09T07:08:56.501Z,62709.03
2023-11-09T07:11:23.942Z,62749.63
2023-11-09T07:13:51.279Z,62706.31
2023-11-09T07:16:19.910Z,62744.81
2023-11-09T07:18:47.804Z,62757.03
2023-11-09T07:21:15.308Z,62713.69
2023-11-09T07:23:43.202Z,62748.72
2023-11-09T07:26:10.669Z,62804.41
2023-11-09T07:28:39.366Z,62807.88
2023-11-09T07:31:07.270Z,62797.94
2023-11-09T07:33:34.828Z,62820.88
2023-11-09T07:36:02.100Z,62857.81
2023-11-09T07:38:29.479Z,62845.00
2023-11-09T07:40:56.809Z,62887.16
2023-11-09T07:43:25.247Z,62849.09
2023-11-09T07:45:52.689Z,62846.38
2023-11-09T07:48:22.824Z,62881.34
2023-11-09T07:50:51.360Z,62908.69
2023-11-09T07:53:18.748Z,62854.34
2023-11-09T07:55:46.189Z,62940.34
2023-11-09T07:58:14.603Z,62925.78
2023-11-09T08:00:43.168Z,62927.22
2023-11-09T08:03:10.697Z,62960.50
2023-11-09T08:05:42.628Z,62959.34
2023-11-09T08:08:12.831Z,63053.47
2023-11-09T08:10:44.555Z,63051.41
2023-11-09T08:13:13.450Z,63041.31
2023-11-09T08:15:40.919Z,63036.25
2023-11-09T08:18:08.571Z,63078.22
2023-11-09T08:20:35.937Z,63107.03
2023-11-09T08:23:03.237Z,63103.91
2023-11-09T08:25:30.910Z,63120.03
2023-11-09T08:27:59.408Z,63139.22
2023-11-09T08:30:29.487Z,63237.13
2023-11-09T08:32:57.415Z,63327.06
2023-11-09T08:35:27.505Z,63275.56
2023-11-09T08:37:54.745Z,63155.69
2023-11-09T08:40:31.269Z,63204.88
2023-11-09T08:42:59.030Z,63243.25
2023-11-09T08:45:30.454Z,63297.13
2023-11-09T08:47:58.635Z,63267.31
2023-11-09T08:50:27.170Z,63289.59
2023-11-09T08:52:57.358Z,63340.81
2023-11-09T08:55:24.741Z,63382.81
2023-11-09T08:57:52.435Z,63417.41
2023-11-09T09:00:24.991Z,63520.84
2023-11-09T09:02:53.519Z,63590.06
2023-11-09T09:05:22.521Z,63541.88
2023-11-09T09:07:57.881Z,63419.22
2023-11-09T09:10:28.760Z,63414.88
2023-11-09T09:13:02.785Z,63463.13
2023-11-09T09:15:30.552Z,63298.53
2023-11-09T09:18:00.628Z,63392.34
2023-11-09T09:20:29.366Z,63445.16
2023-11-09T09:22:58.574Z,63403.22
2023-11-09T09:25:27.093Z,63391.44
2023-11-09T09:27:56.906Z,63350.78
2023-11-09T09:30:24.336Z,63494.38
2023-11-09T09:32:53.146Z,63460.81
2023-11-09T09:35:23.316Z,63387.19
2023-11-09T09:37:51.911Z,63472.84
2023-11-09T09:40:25.091Z,63552.28
2023-11-09T09:42:58.563Z,63539.19
2023-11-09T09:45:29.555Z,63594.72
2023-11-09T09:48:00.304Z,63625.41
2023-11-09T09:50:27.819Z,63623.34
2023-11-09T09:52:57.511Z,63739.31
2023-11-09T09:55:28.630Z,63656.69
2023-11-09T09:57:56.407Z,63707.72
2023-11-09T10:00:24.962Z,63566.13
2023-11-09T10:02:53.901Z,63560.81
2023-11-09T10:05:22.666Z,63564.69
2023-11-09T10:08:06.440Z,63551.84
2023-11-09T10:10:35.671Z,63477.06
2023-11-09T10:13:11.739Z,63489.63
2023-11-09T10:15:39.336Z,63501.47
2023-11-09T10:18:06.739Z,63570.53
2023-11-09T10:20:34.152Z,63447.41
2023-11-09T10:23:03.810Z,63522.81
2023-11-09T10:25:32.509Z,63505.59
2023-11-09T10:28:03.051Z,63478.75
2023-11-09T10:30:41.967Z,63435.09
2023-11-09T10:33:10.692Z,63405.19
2023-11-09T10:35:39.791Z,63358.88
2023-11-09T10:38:10.871Z,63377.91
2023-11-09T10:40:39.245Z,63361.91
2023-11-09T10:43:15.508Z,63371.41
2023-11-09T10:45:45.204Z,63387.47
2023-11-09T10:48:18.716Z,63352.66
2023-11-09T10:50:48.493Z,63413.50
2023-11-09T10:53:16.889Z,63396.38
2023-11-09T10:55:45.736Z,63376.19
2023-11-09T10:58:14.321Z,63422.59
2023-11-09T11:00:45.284Z,63438.44
2023-11-09T11:03:34.333Z,63394.53
2023-11-09T11:06:03.496Z,63377.94
2023-11-09T11:08:37.772Z,63405.47
2023-11-09T11:11:06.520Z,63348.00
2023-11-09T11:13:36.511Z,63362.25
2023-11-09T11:16:22.416Z,63348.22
2023-11-09T11:18:50.484Z,63347.00
2023-11-09T11:21:21.619Z,63426.31
2023-11-09T11:23:56.146Z,63354.72
2023-11-09T11:26:24.354Z,63396.38
2023-11-09T11:28:51.742Z,63375.28
2023-11-09T11:31:21.586Z,63403.28
2023-11-09T11:33:49.763Z,63492.66
2023-11-09T11:36:25.644Z,63502.22
2023-11-09T11:39:12.282Z,63474.81
2023-11-09T11:41:40.528Z,63462.22
2023-11-09T11:44:09.436Z,63469.38
2023-11-09T11:46:36.874Z,63513.44
2023-11-09T11:49:04.866Z,63480.09
2023-11-09T11:51:32.303Z,63510.25
2023-11-09T11:54:09.478Z,63504.72
2023-11-09T11:56:38.677Z,63485.47
2023-11-09T11:59:10.784Z,63522.72
2023-11-09T12:01:41.782Z,63527.66
2023-11-09T12:04:13.195Z,63514.44
2023-11-09T12:06:43.187Z,63523.63
2023-11-09T12:09:12.958Z,63536.31
2023-11-09T12:11:45.293Z,63520.41
2023-11-09T12:14:13.688Z,63529.97
2023-11-09T12:16:41.320Z,63571.63
2023-11-09T12:19:13.686Z,63548.66
2023-11-09T12:21:41.581Z,63573.25
2023-11-09T12:24:14.947Z,63492.53
2023-11-09T12:26:45.456Z,63547.22
2023-11-09T12:29:17.111Z,63488.44
2023-11-09T12:31:45.673Z,63511.59
2023-11-09T12:34:16.308Z,63546.78
2023-11-09T12:36:47.636Z,63438.94
2023-11-09T12:39:30.266Z,63457.28
2023-11-09T12:41:59.112Z,63468.69
2023-11-09T12:44:36.837Z,63504.19
2023-11-09T12:47:09.973Z,63497.44
2023-11-09T12:49:40.061Z,63535.69
2023-11-09T12:52:08.551Z,63508.22
2023-11-09T12:54:41.854Z,63512.75
2023-11-09T12:57:09.601Z,63504.81
2023-11-09T12:59:43.570Z,63507.13
2023-11-09T13:02:18.260Z,63493.72
2023-11-09T13:04:50.471Z,63472.63
2023-11-09T13:07:19.431Z,63483.59
2023-11-09T13:09:47.983Z,63460.38
2023-11-09T13:12:29.285Z,63468.34
2023-11-09T13:15:10.624Z,63466.81
2023-11-09T13:17:53.716Z,63431.69
2023-11-09T13:23:13.101Z,63440.22
2023-11-09T13:25:41.944Z,63491.25
2023-11-09T13:28:10.284Z,63499.81
2023-11-09T13:30:55.175Z,63446.50
2023-11-09T13:33:35.545Z,63468.47
2023-11-09T13:36:06.273Z,63463.16
2023-11-09T13:39:12.654Z,63468.91
2023-11-09T13:41:45.614Z,63471.34
2023-11-09T13:44:13.778Z,63463.19
2023-11-09T13:46:44.043Z,63467.69
2023-11-09T13:49:21.993Z,63446.59
2023-11-09T14:00:46.244Z,63451.28
2023-11-09T14:11:27.325Z,63468.00
2023-11-09T14:14:11.128Z,63445.31
2023-11-09T14:16:48.304Z,63490.44
2023-11-09T14:23:11.442Z,63411.75
2023-11-09T14:25:40.808Z,63391.06
2023-11-09T14:28:09.266Z,63426.22
2023-11-09T14:30:48.395Z,63392.50
2023-11-09T14:38:17.965Z,63367.91
2023-11-09T14:40:52.254Z,63408.81
2023-11-09T14:43:21.143Z,63389.19
2023-11-09T14:46:06.229Z,63357.59
2023-11-09T14:48:41.165Z,63389.69
2023-11-09T14:51:22.745Z,63358.66
2023-11-09T14:53:51.004Z,63363.53
2023-11-09T14:56:34.049Z,63356.25
2023-11-09T14:59:03.805Z,63349.28
2023-11-09T15:01:32.448Z,63354.94
2023-11-09T15:03:59.922Z,63306.81
2023-11-09T15:06:30.292Z,63342.09
2023-11-09T15:09:18.497Z,63386.16
2023-11-09T15:11:48.857Z,63366.63
2023-11-09T15:14:16.787Z,63348.53
2023-11-09T15:16:45.959Z,63334.41
2023-11-09T15:19:14.069Z,63311.34
2023-11-09T15:21:46.348Z,63342.81
2023-11-09T15:24:13.754Z,63328.97
2023-11-09T15:26:42.673Z,63286.63
2023-11-09T15:29:10.331Z,63286.50
2023-11-09T15:31:37.916Z,63253.81
2023-11-09T15:34:07.330Z,63286.34
2023-11-09T15:36:36.278Z,63314.59
2023-11-09T15:39:06.273Z,63326.44
2023-11-09T15:41:38.406Z,63281.34
2023-11-09T15:44:09.812Z,63297.91
2023-11-09T15:46:37.290Z,63304.88
2023-11-09T15:49:10.718Z,63324.69
2023-11-09T15:51:39.108Z,63284.66
2023-11-09T15:54:09.153Z,63307.00
2023-11-09T15:56:37.963Z,63264.78
2023-11-09T15:59:05.928Z,63278.16
2023-11-09T16:01:33.389Z,63241.84
2023-11-09T16:04:00.992Z,63259.38
2023-11-09T16:06:28.635Z,63313.53
2023-11-09T16:08:56.486Z,63284.66
2023-11-09T16:11:23.988Z,63266.00
2023-11-09T16:13:51.837Z,63314.19
2023-11-09T16:16:19.479Z,63258.38
2023-11-09T16:18:48.432Z,63283.03
2023-11-09T16:21:15.922Z,63241.97
2023-11-09T16:23:46.300Z,63241.34
2023-11-09T16:26:14.402Z,63235.22
2023-11-09T16:28:49.189Z,63252.53
2023-11-09T16:31:17.897Z,63238.38
2023-11-09T16:33:45.594Z,63251.75
2023-11-09T16:36:15.095Z,63249.66
2023-11-09T16:38:43.225Z,63257.69
2023-11-09T16:41:10.712Z,63207.34
2023-11-09T16:43:38.096Z,63279.09
2023-11-09T16:46:07.298Z,63250.91
2023-11-09T16:48:39.923Z,63257.63
2023-11-09T16:51:11.761Z,63272.56
2023-11-09T16:53:40.518Z,63237.53
2023-11-09T16:56:10.124Z,63234.09
2023-11-09T16:58:38.119Z,63212.41
2023-11-09T17:01:08.702Z,63247.13
2023-11-09T17:03:36.312Z,63207.19
2023-11-09T17:06:07.523Z,63174.75
2023-11-09T17:08:39.249Z,63174.03
2023-11-09T17:11:10.581Z,63169.28
2023-11-09T17:13:39.319Z,63173.84
2023-11-09T17:16:06.966Z,63217.38
2023-11-09T17:18:34.328Z,63177.91
2023-11-09T17:21:05.346Z,63200.44
2023-11-09T17:23:33.123Z,63224.03
2023-11-09T17:26:01.252Z,63215.44
2023-11-09T17:28:32.275Z,63204.13
2023-11-09T17:30:59.871Z,63214.94
2023-11-09T17:33:27.709Z,63161.53
2023-11-09T17:35:55.243Z,63178.13
2023-11-09T17:38:25.052Z,63209.09
2023-11-09T17:40:53.853Z,63225.09
2023-11-09T17:43:21.428Z,63224.03
2023-11-09T17:45:48.806Z,63193.91
2023-11-09T17:48:16.321Z,63207.28
2023-11-09T17:50:43.792Z,63197.84
2023-11-09T17:53:11.149Z,63224.34
2023-11-09T17:55:38.534Z,63160.97
2023-11-09T17:58:09.075Z,63207.03
2023-11-09T18:00:36.604Z,63185.00
2023-11-09T18:03:05.162Z,63188.19
2023-11-09T18:05:32.617Z,63177.78
2023-11-09T18:08:00.104Z,63154.13
2023-11-09T18:10:27.820Z,63175.84
2023-11-09T18:12:57.021Z,63206.13
2023-11-09T18:15:24.646Z,63198.66
2023-11-09T18:17:53.235Z,63136.63
2023-11-09T18:20:20.571Z,63170.66
2023-11-09T18:22:48.212Z,63149.56
2023-11-09T18:25:16.470Z,63160.53
2023-11-09T18:27:43.810Z,63118.41
2023-11-09T18:30:13.048Z,63136.53
2023-11-09T18:32:40.783Z,63138.84
2023-11-09T18:35:08.792Z,63126.13
2023-11-09T18:37:36.557Z,63187.88
2023-11-09T18:40:05.418Z,63162.75
2023-11-09T18:42:32.807Z,63195.56
2023-11-09T18:45:00.233Z,63144.97
2023-11-09T18:47:29.111Z,63159.09
2023-11-09T18:52:30.149Z,63131.97
2023-11-09T18:54:58.007Z,63143.19
2023-11-09T18:57:26.262Z,63123.88
2023-11-09T18:59:54.748Z,63154.03
2023-11-09T19:02:22.701Z,63174.56
2023-11-09T19:04:53.127Z,63111.38
2023-11-09T19:07:20.882Z,63121.44
2023-11-09T19:09:50.924Z,63156.88
2023-11-09T19:12:18.913Z,63155.38
2023-11-09T19:14:46.641Z,63149.53
2023-11-09T19:17:14.180Z,63128.59
2023-11-09T19:19:41.785Z,63156.31
2023-11-09T19:24:40.273Z,63116.13
2023-11-09T19:27:07.801Z,63155.31
2023-11-09T19:29:35.225Z,63139.53
2023-11-09T19:32:03.843Z,63178.75
2023-11-09T19:34:33.475Z,63161.72
2023-11-09T19:37:02.976Z,63154.69
2023-11-09T19:39:30.464Z,63153.13
2023-11-09T19:41:58.838Z,63147.56
2023-11-09T19:44:26.183Z,63109.81
2023-11-09T19:46:53.579Z,63125.97
2023-11-09T19:49:20.967Z,63166.34
2023-11-09T19:51:49.253Z,63115.59
2023-11-09T19:54:18.756Z,63140.59
2023-11-09T19:56:47.668Z,63138.09
2023-11-09T19:59:15.048Z,63142.56
2023-11-09T20:01:42.690Z,63135.53
2023-11-09T20:04:13.105Z,63166.41
2023-11-09T20:06:41.179Z,63174.44
2023-11-09T20:09:08.789Z,63153.75
2023-11-09T20:11:36.361Z,63106.38
2023-11-09T20:14:04.770Z,63116.69
2023-11-09T20:16:35.099Z,63131.81
2023-11-09T20:19:02.684Z,63195.59
2023-11-09T20:21:31.603Z,63197.94
2023-11-09T20:23:59.535Z,63155.16
2023-11-09T20:26:58.702Z,63154.44
2023-11-09T20:29:29.569Z,63137.47
2023-11-09T20:32:25.224Z,63111.38
2023-11-09T20:34:54.004Z,63080.13
2023-11-09T20:37:27.677Z,63116.88
2023-11-09T20:39:56.293Z,63096.94
2023-11-09T20:42:25.093Z,63152.81
2023-11-09T20:44:52.538Z,63127.91
2023-11-09T20:47:19.927Z,63132.66
2023-11-09T20:49:47.366Z,63110.69
2023-11-09T20:52:14.776Z,63116.41
2023-11-09T20:54:42.223Z,63081.56
2023-11-09T20:57:09.667Z,63128.56
2023-11-09T20:59:45.267Z,63126.06
2023-11-09T21:05:55.720Z,63120.69
2023-11-09T21:08:23.077Z,63107.44
2023-11-09T21:10:50.519Z,63112.81
2023-11-09T21:13:19.125Z,63110.09
2023-11-09T21:15:49.463Z,63118.03
2023-11-09T21:18:17.666Z,63146.09
2023-11-09T21:20:46.275Z,63170.00
2023-11-09T21:23:24.523Z,63185.84
2023-11-09T21:26:20.084Z,63116.94
2023-11-09T21:28:51.227Z,63161.72
2023-11-09T21:31:25.504Z,63138.78
2023-11-09T21:34:04.045Z,63130.84
2023-11-09T21:36:50.394Z,63137.03
2023-11-09T21:39:24.411Z,63129.97
2023-11-09T21:41:53.728Z,63146.97
2023-11-09T21:44:21.153Z,63118.69
2023-11-09T21:46:48.511Z,63147.44
2023-11-09T21:49:16.157Z,63113.13
2023-11-09T21:51:54.962Z,63130.38
2023-11-09T21:54:25.280Z,63078.03
2023-11-09T21:56:52.782Z,63145.09
2023-11-09T21:59:22.259Z,63156.03
2023-11-09T22:01:52.323Z,63142.78
2023-11-09T22:04:20.772Z,63104.94
2023-11-09T22:06:48.331Z,63133.97
2023-11-09T22:09:19.204Z,63043.09
2023-11-09T22:11:48.114Z,63085.00
2023-11-09T22:14:16.495Z,63094.19
2023-11-09T22:16:43.828Z,63121.53
2023-11-09T22:19:14.104Z,63107.63
2023-11-09T22:21:42.095Z,63151.09
2023-11-09T22:24:11.740Z,63163.53
2023-11-09T22:26:40.321Z,63129.88
2023-11-09T22:29:07.988Z,63181.75
2023-11-09T22:31:39.503Z,63140.63
2023-11-09T22:34:07.021Z,63122.13
2023-11-09T22:36:34.536Z,63150.75
2023-11-09T22:39:02.052Z,63130.94
2023-11-09T22:41:29.409Z,63171.28
2023-11-09T22:43:56.900Z,63153.28
2023-11-09T22:46:26.537Z,63152.63
2023-11-09T22:49:00.049Z,63143.28
2023-11-09T22:51:32.969Z,63128.88
2023-11-09T22:57:39.867Z,63112.06
2023-11-09T23:00:25.847Z,63145.72
2023-11-09T23:02:55.187Z,63111.84
2023-11-09T23:05:22.846Z,63140.53
2023-11-09T23:07:50.299Z,63136.16
2023-11-09T23:10:17.878Z,63170.81
2023-11-09T23:12:45.281Z,63131.69
2023-11-09T23:15:15.310Z,63120.47
2023-11-09T23:17:45.113Z,63132.72
2023-11-09T23:20:13.749Z,63111.97
2023-11-09T23:22:41.808Z,63125.97
2023-11-09T23:25:09.793Z,63098.16
2023-11-09T23:27:37.339Z,63151.78
2023-11-09T23:30:05.630Z,63126.38
2023-11-09T23:32:32.997Z,63137.56
2023-11-09T23:35:02.383Z,63140.88
2023-11-09T23:37:29.717Z,63132.78
2023-11-09T23:40:02.490Z,63128.38
2023-11-09T23:42:29.896Z,63105.22
2023-11-09T23:44:57.200Z,63116.47
2023-11-09T23:47:24.470Z,63110.44
2023-11-09T23:49:51.733Z,63128.84
2023-11-09T23:52:18.976Z,63132.69
2023-11-09T23:54:46.416Z,63101.56
2023-11-09T23:57:13.798Z,63139.91
2023-11-09T23:59:41.128Z,63133.97
